sensor_id;sensor_type;location;lat;lon;timestamp;temperature;humidity
74946;HTU21D;63509;45.250;38.102;2023-10-09T00:01:45;11.88;68.64
74946;HTU21D;63509;45.250;38.102;2023-10-09T00:04:12;11.88;68.68
74946;HTU21D;63509;45.250;38.102;2023-10-09T00:06:46;11.82;68.71
74946;HTU21D;63509;45.250;38.102;2023-10-09T00:09:12;11.77;68.80
74946;HTU21D;63509;45.250;38.102;2023-10-09T00:11:52;11.70;68.81
74946;HTU21D;63509;45.250;38.102;2023-10-09T00:14:27;11.63;68.97
74946;HTU21D;63509;45.250;38.102;2023-10-09T00:17:05;11.62;68.97
74946;HTU21D;63509;45.250;38.102;2023-10-09T00:19:46;11.59;68.99
74946;HTU21D;63509;45.250;38.102;2023-10-09T00:22:20;11.53;69.10
74946;HTU21D;63509;45.250;38.102;2023-10-09T00:24:49;11.49;69.10
74946;HTU21D;63509;45.250;38.102;2023-10-09T00:27:17;11.46;69.19
74946;HTU21D;63509;45.250;38.102;2023-10-09T00:29:49;11.40;69.26
74946;HTU21D;63509;45.250;38.102;2023-10-09T00:32:21;11.37;69.35
74946;HTU21D;63509;45.250;38.102;2023-10-09T00:34:53;11.34;69.36
74946;HTU21D;63509;45.250;38.102;2023-10-09T00:37:25;11.32;69.38
74946;HTU21D;63509;45.250;38.102;2023-10-09T00:39:53;11.30;69.52
74946;HTU21D;63509;45.250;38.102;2023-10-09T00:42:23;11.29;69.52
74946;HTU21D;63509;45.250;38.102;2023-10-09T00:44:59;11.27;69.53
74946;HTU21D;63509;45.250;38.102;2023-10-09T00:47:37;11.23;69.56
74946;HTU21D;63509;45.250;38.102;2023-10-09T00:50:08;11.22;69.61
74946;HTU21D;63509;45.250;38.102;2023-10-09T00:52:55;11.19;69.50
74946;HTU21D;63509;45.250;38.102;2023-10-09T00:55:32;11.16;69.55
74946;HTU21D;63509;45.250;38.102;2023-10-09T00:58:15;11.12;69.55
74946;HTU21D;63509;45.250;38.102;2023-10-09T01:00:49;11.10;69.61
74946;HTU21D;63509;45.250;38.102;2023-10-09T01:03:18;11.10;69.15
74946;HTU21D;63509;45.250;38.102;2023-10-09T01:05:51;11.04;69.33
74946;HTU21D;63509;45.250;38.102;2023-10-09T01:08:19;11.00;69.51
74946;HTU21D;63509;45.250;38.102;2023-10-09T01:10:57;10.97;69.68
74946;HTU21D;63509;45.250;38.102;2023-10-09T01:13:37;10.96;69.77
74946;HTU21D;63509;45.250;38.102;2023-10-09T01:16:17;10.95;69.84
74946;HTU21D;63509;45.250;38.102;2023-10-09T01:18:44;10.93;69.89
74946;HTU21D;63509;45.250;38.102;2023-10-09T01:21:11;10.90;69.98
74946;HTU21D;63509;45.250;38.102;2023-10-09T01:23:45;10.93;69.98
74946;HTU21D;63509;45.250;38.102;2023-10-09T01:26:43;10.89;69.98
74946;HTU21D;63509;45.250;38.102;2023-10-09T01:29:20;10.88;69.96
74946;HTU21D;63509;45.250;38.102;2023-10-09T01:31:49;10.87;70.10
74946;HTU21D;63509;45.250;38.102;2023-10-09T01:34:18;10.86;70.19
74946;HTU21D;63509;45.250;38.102;2023-10-09T01:36:53;10.86;70.28
74946;HTU21D;63509;45.250;38.102;2023-10-09T01:39:25;10.86;70.28
74946;HTU21D;63509;45.250;38.102;2023-10-09T01:42:05;10.86;70.28
74946;HTU21D;63509;45.250;38.102;2023-10-09T01:44:32;10.87;70.35
74946;HTU21D;63509;45.250;38.102;2023-10-09T01:47:02;10.87;70.35
74946;HTU21D;63509;45.250;38.102;2023-10-09T01:49:35;10.87;70.36
74946;HTU21D;63509;45.250;38.102;2023-10-09T01:52:07;10.86;70.41
74946;HTU21D;63509;45.250;38.102;2023-10-09T01:54:37;10.87;70.41
74946;HTU21D;63509;45.250;38.102;2023-10-09T01:57:10;10.86;70.46
74946;HTU21D;63509;45.250;38.102;2023-10-09T01:59:40;10.87;70.48
74946;HTU21D;63509;45.250;38.102;2023-10-09T02:02:13;10.89;70.52
74946;HTU21D;63509;45.250;38.102;2023-10-09T02:05:00;10.87;70.49
74946;HTU21D;63509;45.250;38.102;2023-10-09T02:07:32;10.87;70.55
74946;HTU21D;63509;45.250;38.102;2023-10-09T02:10:20;10.86;70.57
74946;HTU21D;63509;45.250;38.102;2023-10-09T02:13:04;10.86;70.60
74946;HTU21D;63509;45.250;38.102;2023-10-09T02:15:34;10.83;70.61
74946;HTU21D;63509;45.250;38.102;2023-10-09T02:18:08;10.84;70.63
74946;HTU21D;63509;45.250;38.102;2023-10-09T02:20:47;10.83;70.62
74946;HTU21D;63509;45.250;38.102;2023-10-09T02:23:20;10.81;70.58
74946;HTU21D;63509;45.250;38.102;2023-10-09T02:26:00;10.81;70.52
74946;HTU21D;63509;45.250;38.102;2023-10-09T02:28:29;10.79;70.54
74946;HTU21D;63509;45.250;38.102;2023-10-09T02:30:58;10.78;70.52
74946;HTU21D;63509;45.250;38.102;2023-10-09T02:33:31;10.75;70.52
74946;HTU21D;63509;45.250;38.102;2023-10-09T02:35:58;10.70;70.44
74946;HTU21D;63509;45.250;38.102;2023-10-09T02:38:32;10.64;70.43
74946;HTU21D;63509;45.250;38.102;2023-10-09T02:41:04;10.60;70.50
74946;HTU21D;63509;45.250;38.102;2023-10-09T02:43:40;10.57;70.48
74946;HTU21D;63509;45.250;38.102;2023-10-09T02:46:11;10.54;70.46
74946;HTU21D;63509;45.250;38.102;2023-10-09T02:48:50;10.55;70.38
74946;HTU21D;63509;45.250;38.102;2023-10-09T02:51:20;10.56;70.32
74946;HTU21D;63509;45.250;38.102;2023-10-09T02:53:56;10.57;70.23
74946;HTU21D;63509;45.250;38.102;2023-10-09T02:56:25;10.54;70.21
74946;HTU21D;63509;45.250;38.102;2023-10-09T02:59:09;10.51;70.20
74946;HTU21D;63509;45.250;38.102;2023-10-09T03:01:38;10.46;70.36
74946;HTU21D;63509;45.250;38.102;2023-10-09T03:04:05;10.44;70.43
74946;HTU21D;63509;45.250;38.102;2023-10-09T03:06:41;10.40;70.50
74946;HTU21D;63509;45.250;38.102;2023-10-09T03:09:18;10.38;70.53
74946;HTU21D;63509;45.250;38.102;2023-10-09T03:11:53;10.37;70.47
74946;HTU21D;63509;45.250;38.102;2023-10-09T03:14:22;10.34;70.64
74946;HTU21D;63509;45.250;38.102;2023-10-09T03:16:52;10.33;70.58
74946;HTU21D;63509;45.250;38.102;2023-10-09T03:19:19;10.29;70.60
74946;HTU21D;63509;45.250;38.102;2023-10-09T03:21:45;10.26;70.65
74946;HTU21D;63509;45.250;38.102;2023-10-09T03:24:12;10.25;70.61
74946;HTU21D;63509;45.250;38.102;2023-10-09T03:26:38;10.23;70.64
74946;HTU21D;63509;45.250;38.102;2023-10-09T03:29:04;10.20;70.60
74946;HTU21D;63509;45.250;38.102;2023-10-09T03:31:40;10.20;70.59
74946;HTU21D;63509;45.250;38.102;2023-10-09T03:34:10;10.18;70.56
74946;HTU21D;63509;45.250;38.102;2023-10-09T03:36:36;10.16;70.52
74946;HTU21D;63509;45.250;38.102;2023-10-09T03:39:06;10.14;70.57
74946;HTU21D;63509;45.250;38.102;2023-10-09T03:41:55;10.11;70.49
74946;HTU21D;63509;45.250;38.102;2023-10-09T03:44:27;10.06;70.55
74946;HTU21D;63509;45.250;38.102;2023-10-09T03:46:56;10.03;70.61
74946;HTU21D;63509;45.250;38.102;2023-10-09T03:49:22;9.99;70.68
74946;HTU21D;63509;45.250;38.102;2023-10-09T03:51:52;9.98;70.68
74946;HTU21D;63509;45.250;38.102;2023-10-09T03:54:19;9.99;70.71
74946;HTU21D;63509;45.250;38.102;2023-10-09T03:56:49;9.98;70.62
74946;HTU21D;63509;45.250;38.102;2023-10-09T03:59:22;10.01;70.59
74946;HTU21D;63509;45.250;38.102;2023-10-09T04:01:48;10.00;70.57
74946;HTU21D;63509;45.250;38.102;2023-10-09T04:04:17;9.96;70.68
74946;HTU21D;63509;45.250;38.102;2023-10-09T04:06:43;9.94;70.74
74946;HTU21D;63509;45.250;38.102;2023-10-09T04:09:10;9.94;70.90
74946;HTU21D;63509;45.250;38.102;2023-10-09T04:11:52;9.96;70.85
74946;HTU21D;63509;45.250;38.102;2023-10-09T04:14:40;9.95;70.90
74946;HTU21D;63509;45.250;38.102;2023-10-09T04:17:21;9.99;70.92
74946;HTU21D;63509;45.250;38.102;2023-10-09T04:20:03;10.01;70.93
74946;HTU21D;63509;45.250;38.102;2023-10-09T04:22:42;10.04;70.85
74946;HTU21D;63509;45.250;38.102;2023-10-09T04:25:20;10.07;70.89
74946;HTU21D;63509;45.250;38.102;2023-10-09T04:27:56;10.10;70.90
74946;HTU21D;63509;45.250;38.102;2023-10-09T04:30:39;10.13;70.87
74946;HTU21D;63509;45.250;38.102;2023-10-09T04:33:21;10.16;70.97
74946;HTU21D;63509;45.250;38.102;2023-10-09T04:36:06;10.18;70.89
74946;HTU21D;63509;45.250;38.102;2023-10-09T04:38:57;10.21;70.93
74946;HTU21D;63509;45.250;38.102;2023-10-09T04:41:31;10.22;71.00
74946;HTU21D;63509;45.250;38.102;2023-10-09T04:44:19;10.25;71.08
74946;HTU21D;63509;45.250;38.102;2023-10-09T04:46:51;10.28;71.17
74946;HTU21D;63509;45.250;38.102;2023-10-09T04:49:37;10.33;71.24
74946;HTU21D;63509;45.250;38.102;2023-10-09T04:52:14;10.37;71.22
74946;HTU21D;63509;45.250;38.102;2023-10-09T04:54:56;10.41;71.35
74946;HTU21D;63509;45.250;38.102;2023-10-09T04:57:42;10.48;71.38
74946;HTU21D;63509;45.250;38.102;2023-10-09T05:00:11;10.53;71.47
74946;HTU21D;63509;45.250;38.102;2023-10-09T05:02:57;10.56;71.60
74946;HTU21D;63509;45.250;38.102;2023-10-09T05:05:37;10.60;71.72
74946;HTU21D;63509;45.250;38.102;2023-10-09T05:08:17;10.68;71.69
74946;HTU21D;63509;45.250;38.102;2023-10-09T05:11:03;10.75;71.86
74946;HTU21D;63509;45.250;38.102;2023-10-09T05:13:34;10.81;72.05
74946;HTU21D;63509;45.250;38.102;2023-10-09T05:16:14;10.92;72.11
74946;HTU21D;63509;45.250;38.102;2023-10-09T05:18:56;11.01;72.37
74946;HTU21D;63509;45.250;38.102;2023-10-09T05:21:39;11.12;72.23
74946;HTU21D;63509;45.250;38.102;2023-10-09T05:24:10;11.23;72.48
74946;HTU21D;63509;45.250;38.102;2023-10-09T05:26:44;11.33;72.38
74946;HTU21D;63509;45.250;38.102;2023-10-09T05:32:05;11.54;72.79
74946;HTU21D;63509;45.250;38.102;2023-10-09T05:34:45;11.69;72.89
74946;HTU21D;63509;45.250;38.102;2023-10-09T05:37:30;11.82;73.19
74946;HTU21D;63509;45.250;38.102;2023-10-09T05:40:02;11.97;73.56
74946;HTU21D;63509;45.250;38.102;2023-10-09T05:42:35;12.07;73.49
74946;HTU21D;63509;45.250;38.102;2023-10-09T05:45:11;12.21;73.49
74946;HTU21D;63509;45.250;38.102;2023-10-09T05:47:44;12.31;73.13
74946;HTU21D;63509;45.250;38.102;2023-10-09T05:50:28;12.42;72.97
74946;HTU21D;63509;45.250;38.102;2023-10-09T05:52:56;12.53;73.38
74946;HTU21D;63509;45.250;38.102;2023-10-09T05:55:23;12.66;73.12
74946;HTU21D;63509;45.250;38.102;2023-10-09T05:57:51;12.79;73.38
74946;HTU21D;63509;45.250;38.102;2023-10-09T06:00:36;12.97;73.30
74946;HTU21D;63509;45.250;38.102;2023-10-09T06:03:21;13.15;73.03
74946;HTU21D;63509;45.250;38.102;2023-10-09T06:06:14;13.29;72.72
74946;HTU21D;63509;45.250;38.102;2023-10-09T06:09:04;13.44;72.57
74946;HTU21D;63509;45.250;38.102;2023-10-09T06:11:54;13.63;72.37
74946;HTU21D;63509;45.250;38.102;2023-10-09T06:14:23;13.77;71.95
74946;HTU21D;63509;45.250;38.102;2023-10-09T06:16:56;13.93;72.35
74946;HTU21D;63509;45.250;38.102;2023-10-09T06:19:26;14.12;71.80
74946;HTU21D;63509;45.250;38.102;2023-10-09T06:21:54;14.25;70.77
74946;HTU21D;63509;45.250;38.102;2023-10-09T06:24:31;14.37;69.74
74946;HTU21D;63509;45.250;38.102;2023-10-09T06:27:12;14.30;68.84
74946;HTU21D;63509;45.250;38.102;2023-10-09T06:29:42;14.23;68.30
74946;HTU21D;63509;45.250;38.102;2023-10-09T06:32:15;14.19;68.06
74946;HTU21D;63509;45.250;38.102;2023-10-09T06:34:49;14.18;67.73
74946;HTU21D;63509;45.250;38.102;2023-10-09T06:37:19;14.18;67.29
74946;HTU21D;63509;45.250;38.102;2023-10-09T06:39:53;14.20;67.06
74946;HTU21D;63509;45.250;38.102;2023-10-09T06:42:26;14.23;67.01
74946;HTU21D;63509;45.250;38.102;2023-10-09T06:45:08;14.30;66.87
74946;HTU21D;63509;45.250;38.102;2023-10-09T06:47:37;14.36;66.26
74946;HTU21D;63509;45.250;38.102;2023-10-09T06:50:23;14.39;66.01
74946;HTU21D;63509;45.250;38.102;2023-10-09T06:52:53;14.42;65.44
74946;HTU21D;63509;45.250;38.102;2023-10-09T06:55:38;14.47;65.59
74946;HTU21D;63509;45.250;38.102;2023-10-09T06:58:18;14.63;65.27
74946;HTU21D;63509;45.250;38.102;2023-10-09T07:00:55;14.74;64.34
74946;HTU21D;63509;45.250;38.102;2023-10-09T07:03:26;14.71;63.69
74946;HTU21D;63509;45.250;38.102;2023-10-09T07:06:19;14.59;63.58
74946;HTU21D;63509;45.250;38.102;2023-10-09T07:09:02;14.58;63.51
74946;HTU21D;63509;45.250;38.102;2023-10-09T07:14:18;14.63;62.53
74946;HTU21D;63509;45.250;38.102;2023-10-09T07:17:08;14.66;62.18
74946;HTU21D;63509;45.250;38.102;2023-10-09T07:19:55;14.71;61.70
74946;HTU21D;63509;45.250;38.102;2023-10-09T07:22:23;14.77;61.47
74946;HTU21D;63509;45.250;38.102;2023-10-09T07:24:56;14.82;60.89
74946;HTU21D;63509;45.250;38.102;2023-10-09T07:27:29;14.85;60.33
74946;HTU21D;63509;45.250;38.102;2023-10-09T07:30:22;14.88;60.21
74946;HTU21D;63509;45.250;38.102;2023-10-09T07:33:05;14.95;60.12
74946;HTU21D;63509;45.250;38.102;2023-10-09T07:35:32;14.99;59.79
74946;HTU21D;63509;45.250;38.102;2023-10-09T07:40:51;15.03;59.32
74946;HTU21D;63509;45.250;38.102;2023-10-09T07:43:37;14.96;59.12
74946;HTU21D;63509;45.250;38.102;2023-10-09T07:46:11;15.00;58.35
74946;HTU21D;63509;45.250;38.102;2023-10-09T07:48:57;15.00;57.94
74946;HTU21D;63509;45.250;38.102;2023-10-09T07:51:24;15.00;57.86
74946;HTU21D;63509;45.250;38.102;2023-10-09T07:53:59;15.00;57.69
74946;HTU21D;63509;45.250;38.102;2023-10-09T07:56:34;15.02;57.24
74946;HTU21D;63509;45.250;38.102;2023-10-09T07:59:16;14.99;56.82
74946;HTU21D;63509;45.250;38.102;2023-10-09T08:01:48;14.98;57.09
74946;HTU21D;63509;45.250;38.102;2023-10-09T08:04:28;15.08;57.45
74946;HTU21D;63509;45.250;38.102;2023-10-09T08:07:25;15.30;57.56
74946;HTU21D;63509;45.250;38.102;2023-10-09T08:09:57;15.45;57.05
74946;HTU21D;63509;45.250;38.102;2023-10-09T08:12:45;15.43;56.32
74946;HTU21D;63509;45.250;38.102;2023-10-09T08:15:18;15.44;56.19
74946;HTU21D;63509;45.250;38.102;2023-10-09T08:17:46;15.46;56.10
74946;HTU21D;63509;45.250;38.102;2023-10-09T08:20:27;15.47;55.58
74946;HTU21D;63509;45.250;38.102;2023-10-09T08:23:03;15.37;55.26
74946;HTU21D;63509;45.250;38.102;2023-10-09T08:25:31;15.19;55.23
74946;HTU21D;63509;45.250;38.102;2023-10-09T08:28:00;15.06;55.49
74946;HTU21D;63509;45.250;38.102;2023-10-09T08:30:47;14.99;55.13
74946;HTU21D;63509;45.250;38.102;2023-10-09T08:33:17;14.92;55.46
74946;HTU21D;63509;45.250;38.102;2023-10-09T08:35:56;14.93;55.31
74946;HTU21D;63509;45.250;38.102;2023-10-09T08:38:35;14.84;54.91
74946;HTU21D;63509;45.250;38.102;2023-10-09T08:41:09;14.74;55.13
74946;HTU21D;63509;45.250;38.102;2023-10-09T08:43:50;14.63;55.56
74946;HTU21D;63509;45.250;38.102;2023-10-09T08:46:23;14.66;55.82
74946;HTU21D;63509;45.250;38.102;2023-10-09T08:48:57;14.82;55.71
74946;HTU21D;63509;45.250;38.102;2023-10-09T08:51:26;14.92;55.00
74946;HTU21D;63509;45.250;38.102;2023-10-09T08:53:54;14.93;54.95
74946;HTU21D;63509;45.250;38.102;2023-10-09T08:56:22;14.96;54.74
74946;HTU21D;63509;45.250;38.102;2023-10-09T08:58:59;14.95;54.86
74946;HTU21D;63509;45.250;38.102;2023-10-09T09:01:28;14.91;54.60
74946;HTU21D;63509;45.250;38.102;2023-10-09T09:03:59;14.81;54.47
74946;HTU21D;63509;45.250;38.102;2023-10-09T09:06:36;14.73;54.65
74946;HTU21D;63509;45.250;38.102;2023-10-09T09:09:11;14.71;54.58
74946;HTU21D;63509;45.250;38.102;2023-10-09T09:11:46;14.74;54.47
74946;HTU21D;63509;45.250;38.102;2023-10-09T09:14:16;14.78;54.38
74946;HTU21D;63509;45.250;38.102;2023-10-09T09:16:48;14.80;54.39
74946;HTU21D;63509;45.250;38.102;2023-10-09T09:19:16;14.88;54.54
74946;HTU21D;63509;45.250;38.102;2023-10-09T09:21:56;15.00;54.51
74946;HTU21D;63509;45.250;38.102;2023-10-09T09:24:28;15.15;54.35
74946;HTU21D;63509;45.250;38.102;2023-10-09T09:27:03;15.29;54.16
74946;HTU21D;63509;45.250;38.102;2023-10-09T09:29:40;15.34;54.04
74946;HTU21D;63509;45.250;38.102;2023-10-09T09:32:11;15.37;53.88
74946;HTU21D;63509;45.250;38.102;2023-10-09T09:34:51;15.41;53.89
74946;HTU21D;63509;45.250;38.102;2023-10-09T09:37:22;15.52;53.87
74946;HTU21D;63509;45.250;38.102;2023-10-09T09:40:13;15.62;53.73
74946;HTU21D;63509;45.250;38.102;2023-10-09T09:43:02;15.66;53.67
74946;HTU21D;63509;45.250;38.102;2023-10-09T09:45:36;15.66;54.26
74946;HTU21D;63509;45.250;38.102;2023-10-09T09:48:03;15.56;53.86
74946;HTU21D;63509;45.250;38.102;2023-10-09T09:50:36;15.47;53.60
74946;HTU21D;63509;45.250;38.102;2023-10-09T09:53:11;15.27;54.04
74946;HTU21D;63509;45.250;38.102;2023-10-09T09:55:54;15.11;54.19
74946;HTU21D;63509;45.250;38.102;2023-10-09T09:58:25;14.98;54.11
74946;HTU21D;63509;45.250;38.102;2023-10-09T10:01:04;14.92;54.13
74946;HTU21D;63509;45.250;38.102;2023-10-09T10:04:11;14.82;54.24
74946;HTU21D;63509;45.250;38.102;2023-10-09T10:06:43;14.69;53.98
74946;HTU21D;63509;45.250;38.102;2023-10-09T10:09:39;14.54;54.30
74946;HTU21D;63509;45.250;38.102;2023-10-09T10:12:08;14.40;54.31
74946;HTU21D;63509;45.250;38.102;2023-10-09T10:14:56;14.43;54.62
74946;HTU21D;63509;45.250;38.102;2023-10-09T10:17:26;14.50;54.25
74946;HTU21D;63509;45.250;38.102;2023-10-09T10:19:58;14.56;54.03
74946;HTU21D;63509;45.250;38.102;2023-10-09T10:22:27;14.64;53.75
74946;HTU21D;63509;45.250;38.102;2023-10-09T10:24:54;14.67;53.75
74946;HTU21D;63509;45.250;38.102;2023-10-09T10:27:22;14.77;53.65
74946;HTU21D;63509;45.250;38.102;2023-10-09T10:35:19;14.96;53.23
74946;HTU21D;63509;45.250;38.102;2023-10-09T10:40:49;14.85;52.89
74946;HTU21D;63509;45.250;38.102;2023-10-09T10:43:26;14.71;52.94
74946;HTU21D;63509;45.250;38.102;2023-10-09T10:46:14;14.56;53.21
74946;HTU21D;63509;45.250;38.102;2023-10-09T10:49:00;14.53;53.32
74946;HTU21D;63509;45.250;38.102;2023-10-09T10:51:41;14.53;52.96
74946;HTU21D;63509;45.250;38.102;2023-10-09T10:54:26;14.60;52.88
74946;HTU21D;63509;45.250;38.102;2023-10-09T10:56:59;14.63;52.62
74946;HTU21D;63509;45.250;38.102;2023-10-09T10:59:39;14.71;52.74
74946;HTU21D;63509;45.250;38.102;2023-10-09T11:02:11;14.80;52.35
74946;HTU21D;63509;45.250;38.102;2023-10-09T11:04:38;14.82;52.16
74946;HTU21D;63509;45.250;38.102;2023-10-09T11:07:08;14.82;52.15
74946;HTU21D;63509;45.250;38.102;2023-10-09T11:10:02;14.78;52.10
74946;HTU21D;63509;45.250;38.102;2023-10-09T11:12:43;14.63;52.21
74946;HTU21D;63509;45.250;38.102;2023-10-09T11:15:31;14.43;52.50
74946;HTU21D;63509;45.250;38.102;2023-10-09T11:18:12;14.27;52.47
74946;HTU21D;63509;45.250;38.102;2023-10-09T11:20:54;14.12;52.76
74946;HTU21D;63509;45.250;38.102;2023-10-09T11:23:33;14.03;52.89
74946;HTU21D;63509;45.250;38.102;2023-10-09T11:26:01;13.96;53.01
74946;HTU21D;63509;45.250;38.102;2023-10-09T11:28:46;13.88;53.16
74946;HTU21D;63509;45.250;38.102;2023-10-09T11:31:18;13.80;53.20
74946;HTU21D;63509;45.250;38.102;2023-10-09T11:36:11;13.69;53.39
74946;HTU21D;63509;45.250;38.102;2023-10-09T11:38:39;13.64;53.57
74946;HTU21D;63509;45.250;38.102;2023-10-09T11:41:16;13.62;53.69
74946;HTU21D;63509;45.250;38.102;2023-10-09T11:43:50;13.59;53.76
74946;HTU21D;63509;45.250;38.102;2023-10-09T11:46:18;13.55;53.68
74946;HTU21D;63509;45.250;38.102;2023-10-09T11:49:24;13.49;53.69
74946;HTU21D;63509;45.250;38.102;2023-10-09T11:52:10;13.39;53.81
74946;HTU21D;63509;45.250;38.102;2023-10-09T11:54:39;13.39;53.99
74946;HTU21D;63509;45.250;38.102;2023-10-09T11:57:10;13.36;53.90
74946;HTU21D;63509;45.250;38.102;2023-10-09T11:59:37;13.31;53.99
74946;HTU21D;63509;45.250;38.102;2023-10-09T12:02:08;13.26;54.10
74946;HTU21D;63509;45.250;38.102;2023-10-09T12:04:39;13.23;54.04
74946;HTU21D;63509;45.250;38.102;2023-10-09T12:07:09;13.18;53.97
74946;HTU21D;63509;45.250;38.102;2023-10-09T12:09:37;13.12;54.13
74946;HTU21D;63509;45.250;38.102;2023-10-09T12:12:05;13.09;54.20
74946;HTU21D;63509;45.250;38.102;2023-10-09T12:14:33;13.08;54.29
74946;HTU21D;63509;45.250;38.102;2023-10-09T12:17:03;13.05;54.26
74946;HTU21D;63509;45.250;38.102;2023-10-09T12:19:38;13.03;54.33
74946;HTU21D;63509;45.250;38.102;2023-10-09T12:22:07;13.02;54.27
74946;HTU21D;63509;45.250;38.102;2023-10-09T12:27:05;13.01;54.30
74946;HTU21D;63509;45.250;38.102;2023-10-09T12:29:38;13.02;54.34
74946;HTU21D;63509;45.250;38.102;2023-10-09T12:32:11;13.04;54.24
74946;HTU21D;63509;45.250;38.102;2023-10-09T12:34:41;13.04;54.24
74946;HTU21D;63509;45.250;38.102;2023-10-09T12:37:10;13.04;54.17
74946;HTU21D;63509;45.250;38.102;2023-10-09T12:39:41;13.04;54.13
74946;HTU21D;63509;45.250;38.102;2023-10-09T12:42:09;13.02;54.12
74946;HTU21D;63509;45.250;38.102;2023-10-09T12:44:38;12.99;54.07
74946;HTU21D;63509;45.250;38.102;2023-10-09T12:47:10;12.95;54.14
74946;HTU21D;63509;45.250;38.102;2023-10-09T12:49:39;12.91;54.28
74946;HTU21D;63509;45.250;38.102;2023-10-09T12:52:09;12.90;54.39
74946;HTU21D;63509;45.250;38.102;2023-10-09T12:54:43;12.91;54.42
74946;HTU21D;63509;45.250;38.102;2023-10-09T12:57:12;12.91;54.31
74946;HTU21D;63509;45.250;38.102;2023-10-09T12:59:41;12.88;54.32
74946;HTU21D;63509;45.250;38.102;2023-10-09T13:02:15;12.80;54.36
74946;HTU21D;63509;45.250;38.102;2023-10-09T13:04:57;12.73;54.39
74946;HTU21D;63509;45.250;38.102;2023-10-09T13:07:25;12.69;54.39
74946;HTU21D;63509;45.250;38.102;2023-10-09T13:09:52;12.65;54.42
74946;HTU21D;63509;45.250;38.102;2023-10-09T13:12:38;12.62;54.45
74946;HTU21D;63509;45.250;38.102;2023-10-09T13:15:11;12.57;54.43
74946;HTU21D;63509;45.250;38.102;2023-10-09T13:17:41;12.51;54.51
74946;HTU21D;63509;45.250;38.102;2023-10-09T13:20:14;12.48;54.58
74946;HTU21D;63509;45.250;38.102;2023-10-09T13:22:42;12.45;54.67
74946;HTU21D;63509;45.250;38.102;2023-10-09T13:25:10;12.44;54.72
74946;HTU21D;63509;45.250;38.102;2023-10-09T13:27:51;12.44;54.76
74946;HTU21D;63509;45.250;38.102;2023-10-09T13:30:18;12.44;54.77
74946;HTU21D;63509;45.250;38.102;2023-10-09T13:32:49;12.45;54.80
74946;HTU21D;63509;45.250;38.102;2023-10-09T13:35:19;12.45;54.84
74946;HTU21D;63509;45.250;38.102;2023-10-09T13:37:46;12.46;54.78
74946;HTU21D;63509;45.250;38.102;2023-10-09T13:40:21;12.47;54.77
74946;HTU21D;63509;45.250;38.102;2023-10-09T13:42:56;12.43;54.76
74946;HTU21D;63509;45.250;38.102;2023-10-09T13:45:26;12.38;54.76
74946;HTU21D;63509;45.250;38.102;2023-10-09T13:47:57;12.35;54.79
74946;HTU21D;63509;45.250;38.102;2023-10-09T13:50:24;12.32;54.73
74946;HTU21D;63509;45.250;38.102;2023-10-09T13:52:56;12.27;54.82
74946;HTU21D;63509;45.250;38.102;2023-10-09T13:55:22;12.23;54.84
74946;HTU21D;63509;45.250;38.102;2023-10-09T13:57:50;12.22;54.86
74946;HTU21D;63509;45.250;38.102;2023-10-09T14:00:16;12.23;54.81
74946;HTU21D;63509;45.250;38.102;2023-10-09T14:03:02;12.20;54.87
74946;HTU21D;63509;45.250;38.102;2023-10-09T14:05:37;12.19;54.89
74946;HTU21D;63509;45.250;38.102;2023-10-09T14:08:11;12.18;54.93
74946;HTU21D;63509;45.250;38.102;2023-10-09T14:10:42;12.18;54.95
74946;HTU21D;63509;45.250;38.102;2023-10-09T14:13:14;12.18;54.94
74946;HTU21D;63509;45.250;38.102;2023-10-09T14:15:44;12.18;54.97
74946;HTU21D;63509;45.250;38.102;2023-10-09T14:18:13;12.18;54.97
74946;HTU21D;63509;45.250;38.102;2023-10-09T14:20:39;12.16;54.91
74946;HTU21D;63509;45.250;38.102;2023-10-09T14:23:07;12.13;54.94
74946;HTU21D;63509;45.250;38.102;2023-10-09T14:25:33;12.12;54.94
74946;HTU21D;63509;45.250;38.102;2023-10-09T14:28:10;12.10;54.96
74946;HTU21D;63509;45.250;38.102;2023-10-09T14:30:37;12.07;54.97
74946;HTU21D;63509;45.250;38.102;2023-10-09T14:33:10;12.04;55.00
74946;HTU21D;63509;45.250;38.102;2023-10-09T14:35:42;12.03;54.98
74946;HTU21D;63509;45.250;38.102;2023-10-09T14:38:09;12.02;54.98
74946;HTU21D;63509;45.250;38.102;2023-10-09T14:40:42;12.02;55.02
74946;HTU21D;63509;45.250;38.102;2023-10-09T14:43:16;11.98;55.00
74946;HTU21D;63509;45.250;38.102;2023-10-09T14:45:46;11.93;55.07
74946;HTU21D;63509;45.250;38.102;2023-10-09T14:48:20;11.89;55.07
74946;HTU21D;63509;45.250;38.102;2023-10-09T14:50:55;11.86;55.08
74946;HTU21D;63509;45.250;38.102;2023-10-09T14:53:30;11.82;55.18
74946;HTU21D;63509;45.250;38.102;2023-10-09T14:55:57;11.81;55.17
74946;HTU21D;63509;45.250;38.102;2023-10-09T14:58:25;11.83;55.21
74946;HTU21D;63509;45.250;38.102;2023-10-09T15:00:51;11.85;55.25
74946;HTU21D;63509;45.250;38.102;2023-10-09T15:03:19;11.88;55.24
74946;HTU21D;63509;45.250;38.102;2023-10-09T15:05:46;11.90;55.28
74946;HTU21D;63509;45.250;38.102;2023-10-09T15:08:12;11.94;55.21
74946;HTU21D;63509;45.250;38.102;2023-10-09T15:10:49;11.99;55.13
74946;HTU21D;63509;45.250;38.102;2023-10-09T15:13:18;12.00;55.18
74946;HTU21D;63509;45.250;38.102;2023-10-09T15:15:44;12.06;55.10
74946;HTU21D;63509;45.250;38.102;2023-10-09T15:18:11;12.11;55.00
74946;HTU21D;63509;45.250;38.102;2023-10-09T15:20:40;12.14;54.86
74946;HTU21D;63509;45.250;38.102;2023-10-09T15:23:09;12.19;54.76
74946;HTU21D;63509;45.250;38.102;2023-10-09T15:25:36;12.22;54.64
74946;HTU21D;63509;45.250;38.102;2023-10-09T15:28:06;12.26;54.58
74946;HTU21D;63509;45.250;38.102;2023-10-09T15:30:36;12.27;54.55
74946;HTU21D;63509;45.250;38.102;2023-10-09T15:33:05;12.27;54.51
74946;HTU21D;63509;45.250;38.102;2023-10-09T15:35:31;12.26;54.47
74946;HTU21D;63509;45.250;38.102;2023-10-09T15:38:02;12.26;54.43
74946;HTU21D;63509;45.250;38.102;2023-10-09T15:40:30;12.26;54.39
74946;HTU21D;63509;45.250;38.102;2023-10-09T15:42:59;12.23;54.45
74946;HTU21D;63509;45.250;38.102;2023-10-09T15:45:26;12.21;54.42
74946;HTU21D;63509;45.250;38.102;2023-10-09T15:47:55;12.19;54.43
74946;HTU21D;63509;45.250;38.102;2023-10-09T15:50:21;12.18;54.49
74946;HTU21D;63509;45.250;38.102;2023-10-09T15:52:54;12.15;54.52
74946;HTU21D;63509;45.250;38.102;2023-10-09T15:55:21;12.15;54.59
74946;HTU21D;63509;45.250;38.102;2023-10-09T15:57:50;12.16;54.52
74946;HTU21D;63509;45.250;38.102;2023-10-09T16:00:27;12.16;54.47
74946;HTU21D;63509;45.250;38.102;2023-10-09T16:02:57;12.18;54.45
74946;HTU21D;63509;45.250;38.102;2023-10-09T16:05:26;12.19;54.44
74946;HTU21D;63509;45.250;38.102;2023-10-09T16:07:54;12.22;54.37